Time;durP1;ratioP1;P1;durP2;ratioP2;P2;SDS_P1;SDS_P2;PMS_P1;PMS_P2;Temp;Humidity;BMP_temperature;BMP_pressure;BME280_temperature;BME280_humidity;BME280_pressure;Samples;Min_cycle;Max_cycle;Signal;HPM_P1;HPM_P2
2022/12/24 00:00:35;;;;;;;31.07;6.80;;;;;;;11.11;100.00;100574.59;5127382;29;20076;-75
2022/12/24 00:03:07;;;;;;;33.83;7.07;;;;;;;11.04;100.00;100550.72;5121566;29;20032;-75
2022/12/24 00:05:38;;;;;;;34.63;8.07;;;;;;;11.00;100.00;100559.81;5124609;29;20040;-76
2022/12/24 00:08:09;;;;;;;28.23;7.80;;;;;;;10.99;100.00;100566.03;5125339;29;20038;-76
2022/12/24 00:10:41;;;;;;;34.45;7.93;;;;;;;10.98;100.00;100566.16;5123996;29;20218;-75
2022/12/24 00:13:12;;;;;;;27.50;7.47;;;;;;;10.98;100.00;100566.16;5107240;29;20048;-75
2022/12/24 00:15:43;;;;;;;35.42;8.02;;;;;;;10.97;100.00;100557.47;5124274;29;20086;-76
2022/12/24 00:18:15;;;;;;;33.22;8.30;;;;;;;11.00;100.00;100569.50;5120623;29;20036;-75
2022/12/24 00:20:47;;;;;;;26.88;7.15;;;;;;;11.01;100.00;100584.25;5118083;29;20163;-76
2022/12/24 00:23:19;;;;;;;27.80;7.43;;;;;;;11.02;100.00;100588.50;5105335;29;20020;-75
2022/12/24 00:25:50;;;;;;;24.98;6.60;;;;;;;11.05;100.00;100583.81;5123033;29;20401;-75
2022/12/24 00:28:22;;;;;;;33.97;7.50;;;;;;;11.04;100.00;100583.97;5120075;29;20039;-75
2022/12/24 00:30:53;;;;;;;30.38;7.22;;;;;;;11.05;100.00;100580.38;5105055;29;20047;-75
2022/12/24 00:33:24;;;;;;;28.25;7.18;;;;;;;11.02;100.00;100572.78;5126698;29;20478;-75
2022/12/24 00:35:56;;;;;;;32.03;7.43;;;;;;;11.09;100.00;100587.81;5116962;29;20020;-76
2022/12/24 00:38:27;;;;;;;27.73;7.15;;;;;;;11.07;100.00;100597.63;5126886;29;20027;-76
2022/12/24 00:41:00;;;;;;;22.35;6.25;;;;;;;11.08;100.00;100593.19;5121446;29;20390;-76
2022/12/24 00:43:31;;;;;;;;;;;;;;;11.56;100.00;100602.78;5104169;29;20036;-75
2022/12/24 00:46:03;;;;;;;25.20;6.43;;;;;;;11.11;100.00;100612.09;5120107;29;19925;-76
2022/12/24 00:48:34;;;;;;;29.67;8.18;;;;;;;11.05;100.00;100611.84;5120892;29;20044;-76
2022/12/24 00:51:05;;;;;;;33.97;8.10;;;;;;;11.00;100.00;100616.66;5125806;29;20135;-76
2022/12/24 00:53:36;;;;;;;19.17;5.93;;;;;;;11.00;100.00;100620.13;5126560;29;20035;-75
2022/12/24 00:56:08;;;;;;;29.27;7.30;;;;;;;11.05;100.00;100625.75;5118312;29;20036;-75
2022/12/24 00:58:40;;;;;;;24.90;6.65;;;;;;;11.05;100.00;100633.63;5121549;29;20028;-75
2022/12/24 01:01:11;;;;;;;30.88;6.75;;;;;;;11.04;100.00;100624.13;5126136;29;20477;-76
2022/12/24 01:03:43;;;;;;;32.03;6.97;;;;;;;11.02;100.00;100633.91;5121042;29;20412;-75
2022/12/24 01:06:17;;;;;;;26.70;7.03;;;;;;;11.01;100.00;100639.28;5121782;29;20016;-75
2022/12/24 01:08:51;;;;;;;23.05;7.28;;;;;;;11.04;100.00;100641.63;5120948;29;20039;-76
2022/12/24 01:11:22;;;;;;;28.88;6.75;;;;;;;11.01;100.00;100645.34;5123583;29;20115;-75
2022/12/24 01:13:54;;;;;;;21.95;6.43;;;;;;;11.01;100.00;100644.53;5116913;29;20494;-75
2022/12/24 01:16:26;;;;;;;32.93;8.33;;;;;;;10.97;100.00;100641.34;5121851;29;20028;-75
2022/12/24 01:18:57;;;;;;;31.40;7.32;;;;;;;10.95;100.00;100649.38;5118680;29;20095;-76
2022/12/24 01:21:28;;;;;;;24.08;7.80;;;;;;;10.91;100.00;100648.00;5121786;29;20028;-75
2022/12/24 01:23:59;;;;;;;29.52;7.88;;;;;;;10.88;100.00;100653.50;5126663;29;20039;-75
2022/12/24 01:26:31;;;;;;;23.55;6.20;;;;;;;10.86;100.00;100660.66;5121271;29;20347;-75
2022/12/24 01:29:02;;;;;;;35.08;7.47;;;;;;;10.84;100.00;100664.41;5125064;29;20491;-76
2022/12/24 01:31:33;;;;;;;27.73;8.35;;;;;;;10.79;100.00;100674.44;5120213;29;20035;-76
2022/12/24 01:34:05;;;;;;;29.27;6.82;;;;;;;10.77;100.00;100671.97;5121913;29;20036;-75
2022/12/24 01:36:36;;;;;;;25.38;7.30;;;;;;;10.78;100.00;100667.56;5105004;29;20104;-75
2022/12/24 01:39:07;;;;;;;29.85;8.48;;;;;;;10.77;100.00;100674.59;5096255;29;20020;-75
2022/12/24 01:44:34;;;;;;;27.00;7.95;;;;;;;10.79;100.00;100688.38;5123443;29;20405;-76
2022/12/24 01:47:08;;;;;;;27.35;8.43;;;;;;;10.67;100.00;100690.28;5119651;29;20078;-75
2022/12/24 01:49:50;;;;;;;26.02;7.35;;;;;;;10.76;100.00;100688.66;5123615;29;20482;-75
2022/12/24 01:52:27;;;;;;;28.23;7.53;;;;;;;10.67;100.00;100685.03;5107065;29;20034;-75
2022/12/24 01:55:03;;;;;;;28.52;7.53;;;;;;;10.69;100.00;100687.53;5124157;29;20039;-76
2022/12/24 01:57:57;;;;;;;28.48;7.82;;;;;;;10.81;100.00;100686.44;5121147;29;20119;-75
2022/12/24 02:00:28;;;;;;;;;;;;;;;11.16;100.00;100685.94;5120729;29;20042;-75
2022/12/24 02:03:00;;;;;;;25.40;6.53;;;;;;;10.66;100.00;100688.63;5102876;29;19915;-75
2022/12/24 02:06:04;;;;;;;31.95;7.50;;;;;;;10.95;100.00;100699.16;5122811;29;20299;-75
2022/12/24 02:08:41;;;;;;;23.63;6.53;;;;;;;10.68;100.00;100698.97;5079757;29;20067;-75
2022/12/24 02:11:15;;;;;;;36.40;7.65;;;;;;;10.71;100.00;100711.78;5144857;23;20043;-71
2022/12/24 02:13:51;;;;;;;21.20;6.68;;;;;;;10.74;100.00;100713.34;5104450;29;20891;-74
2022/12/24 02:16:41;;;;;;;31.50;7.68;;;;;;;10.80;100.00;100716.25;5126402;29;20023;-74
2022/12/24 02:19:31;;;;;;;31.05;7.43;;;;;;;10.75;100.00;100715.81;5132184;29;20039;-75
2022/12/24 02:22:14;;;;;;;32.55;6.90;;;;;;;10.84;100.00;100727.28;5131294;29;20380;-74
2022/12/24 02:25:16;;;;;;;32.92;8.45;;;;;;;11.00;100.00;100724.16;5132115;29;20047;-74
2022/12/24 02:28:05;;;;;;;31.30;7.63;;;;;;;10.91;100.00;100718.75;5129363;29;20572;-73
2022/12/24 02:30:46;;;;;;;26.58;7.30;;;;;;;10.95;100.00;100724.56;5131333;29;20031;-74
2022/12/24 02:33:44;;;;;;;36.45;8.25;;;;;;;11.04;100.00;100731.59;5131147;29;20040;-74
2022/12/24 02:36:33;;;;;;;34.13;8.35;;;;;;;11.04;100.00;100739.47;5129302;29;20488;-71
2022/12/24 02:39:09;;;;;;;37.88;8.02;;;;;;;10.90;100.00;100727.56;5134150;29;20027;-74
2022/12/24 02:44:52;;;;;;;31.42;7.82;;;;;;;10.99;100.00;100736.44;5119030;29;20501;-74
2022/12/24 02:47:26;;;;;;;30.60;7.53;;;;;;;10.99;100.00;100736.44;5134806;29;20400;-74
2022/12/24 02:50:00;;;;;;;29.13;7.35;;;;;;;10.95;100.00;100732.41;5135959;29;20024;-74
2022/12/24 02:52:34;;;;;;;32.33;7.28;;;;;;;10.92;100.00;100735.31;5134922;29;20497;-74
2022/12/24 02:55:11;;;;;;;29.15;7.28;;;;;;;10.95;100.00;100732.41;5134050;29;20043;-74
2022/12/24 02:58:13;;;;;;;32.28;6.35;;;;;;;11.13;100.00;100735.19;5136065;29;20393;-74
2022/12/24 03:01:15;;;;;;;39.03;7.43;;;;;;;10.98;100.00;100739.16;5125801;29;20043;-74
2022/12/24 03:04:18;;;;;;;32.55;6.47;;;;;;;11.23;100.00;100733.41;5130133;29;20111;-73
2022/12/24 03:07:22;;;;;;;30.75;7.38;;;;;;;11.08;100.00;100746.09;5094248;29;20048;-74
2022/12/24 03:10:05;;;;;;;28.23;6.95;;;;;;;11.04;100.00;100749.13;5134782;29;20032;-72
2022/12/24 03:12:53;;;;;;;27.02;6.43;;;;;;;11.13;100.00;100748.28;5131811;29;20398;-74
2022/12/24 03:15:26;;;;;;;26.23;6.72;;;;;;;10.96;100.00;100740.13;5133020;29;20150;-73
2022/12/24 03:18:01;;;;;;;32.60;8.07;;;;;;;11.04;100.00;100747.31;5133788;29;20032;-74
2022/12/24 03:20:37;;;;;;;24.67;5.95;;;;;;;11.06;100.00;100737.56;5130184;29;20122;-74
2022/12/24 03:23:08;;;;;;;20.17;6.63;;;;;;;11.06;100.00;100753.28;5131299;29;20035;-74
2022/12/24 03:25:42;;;;;;;23.60;6.35;;;;;;;11.08;100.00;100756.56;5131467;29;20301;-75
2022/12/24 03:28:16;;;;;;;31.90;6.93;;;;;;;11.12;100.00;100755.34;5136048;29;20027;-75
2022/12/24 03:30:47;;;;;;;27.75;7.53;;;;;;;11.05;100.00;100746.34;5128045;29;20027;-74
2022/12/24 03:33:19;;;;;;;26.05;6.47;;;;;;;11.15;100.00;100751.63;5132532;29;20402;-74
2022/12/24 03:35:50;;;;;;;27.17;7.25;;;;;;;11.11;100.00;100750.25;5133715;29;20123;-74
2022/12/24 03:38:22;;;;;;;29.27;6.20;;;;;;;11.17;100.00;100758.41;5134715;29;20038;-75
2022/12/24 03:40:53;;;;;;;26.70;7.13;;;;;;;11.18;100.00;100769.72;5132644;29;20075;-74
2022/12/24 03:43:24;;;;;;;24.30;6.15;;;;;;;11.22;100.00;100767.66;5135615;29;20028;-75
2022/12/24 03:45:56;;;;;;;28.52;6.45;;;;;;;11.21;100.00;100766.78;5125529;29;20078;-73
2022/12/24 03:48:27;;;;;;;24.80;6.47;;;;;;;11.22;100.00;100771.09;5131130;29;20035;-73
2022/12/24 03:50:58;;;;;;;25.33;6.28;;;;;;;11.25;100.00;100780.47;5127770;29;20493;-74
2022/12/24 03:53:30;;;;;;;25.77;6.40;;;;;;;11.28;100.00;100773.16;5116188;29;20529;-72
2022/12/24 03:56:01;;;;;;;33.63;7.35;;;;;;;11.24;100.00;100774.41;5128245;29;20070;-74
2022/12/24 03:58:32;;;;;;;23.92;6.72;;;;;;;11.22;100.00;100772.91;5134650;29;20023;-73
2022/12/24 04:01:04;;;;;;;26.75;7.07;;;;;;;11.22;100.00;100772.91;5130968;29;20019;-75
2022/12/24 04:03:35;;;;;;;22.58;6.07;;;;;;;11.19;100.00;100782.69;5132295;29;20040;-73
2022/12/24 04:06:13;;;;;;;21.83;6.82;;;;;;;11.26;100.00;100785.59;5123903;29;20973;-74
2022/12/24 04:08:44;;;;;;;23.70;6.78;;;;;;;11.18;100.00;100781.03;5133765;29;20381;-74
2022/12/24 04:11:17;;;;;;;22.90;6.57;;;;;;;11.18;100.00;100783.66;5131780;29;20031;-74
2022/12/24 04:13:48;;;;;;;20.17;6.30;;;;;;;11.22;100.00;100778.16;5125071;29;20450;-72
2022/12/24 04:16:19;;;;;;;23.55;6.45;;;;;;;11.23;100.00;100788.47;5128455;29;20044;-74
2022/12/24 04:18:50;;;;;;;20.88;6.07;;;;;;;11.23;100.00;100788.47;5129964;29;20032;-73
2022/12/24 04:21:22;;;;;;;23.40;6.10;;;;;;;11.22;100.00;100780.75;5129499;29;20042;-75
2022/12/24 04:23:53;;;;;;;28.10;7.03;;;;;;;11.25;100.00;100797.06;5122229;29;20561;-74
2022/12/24 04:26:24;;;;;;;25.92;6.30;;;;;;;11.24;100.00;100803.25;5132183;29;20087;-74
2022/12/24 04:28:56;;;;;;;20.70;6.20;;;;;;;11.23;100.00;100798.16;5129767;29;20082;-74
2022/12/24 04:31:27;;;;;;;24.73;6.93;;;;;;;11.24;100.00;100800.63;5132750;29;20401;-74
2022/12/24 04:33:58;;;;;;;22.33;6.95;;;;;;;11.25;100.00;100804.94;5122784;29;20040;-71
2022/12/24 04:36:30;;;;;;;22.67;6.43;;;;;;;11.26;100.00;100806.56;5133792;29;20043;-74
2022/12/24 04:39:01;;;;;;;26.20;6.63;;;;;;;11.26;100.00;100806.56;5131038;29;20023;-74
2022/12/24 04:41:32;;;;;;;24.83;6.35;;;;;;;11.26;100.00;100808.38;5134139;29;20079;-74
2022/12/24 04:44:03;;;;;;;22.02;6.32;;;;;;;11.22;100.00;100805.19;5132275;29;20031;-73
2022/12/24 04:46:35;;;;;;;28.88;8.15;;;;;;;11.14;100.00;100802.41;5131860;29;20087;-74
2022/12/24 04:49:06;;;;;;;26.23;7.43;;;;;;;11.16;100.00;100808.34;5133954;29;20031;-74
2022/12/24 04:51:38;;;;;;;28.85;7.40;;;;;;;11.10;100.00;100796.63;5132546;29;20035;-74
2022/12/24 04:54:09;;;;;;;28.70;6.88;;;;;;;11.11;100.00;100797.44;5130117;29;20032;-74
2022/12/24 04:56:40;;;;;;;25.42;6.65;;;;;;;11.10;100.00;100806.25;5132854;29;20055;-74
2022/12/24 04:59:11;;;;;;;29.02;6.00;;;;;;;11.10;100.00;100809.72;5115838;29;20035;-74
2022/12/24 05:01:43;;;;;;;23.85;5.95;;;;;;;11.13;100.00;100817.28;5131794;29;20031;-74
2022/12/24 05:04:14;;;;;;;24.75;6.55;;;;;;;11.12;100.00;100820.88;5132674;29;20035;-73
2022/12/24 05:06:45;;;;;;;23.95;5.63;;;;;;;11.11;100.00;100818.41;5132937;29;20024;-74
2022/12/24 05:09:17;;;;;;;25.02;5.00;;;;;;;11.16;100.00;100816.19;5112794;29;20046;-74
2022/12/24 05:11:48;;;;;;;23.90;5.68;;;;;;;11.15;100.00;100825.03;5128817;29;20051;-74
2022/12/24 05:14:19;;;;;;;24.05;5.38;;;;;;;11.16;100.00;100835.38;5130268;29;20032;-74
2022/12/24 05:16:50;;;;;;;23.80;5.65;;;;;;;11.14;100.00;100824.22;5131904;29;20060;-74
2022/12/24 05:19:22;;;;;;;26.77;5.97;;;;;;;11.08;100.00;100818.69;5131009;29;20030;-74
2022/12/24 05:27:33;;;;;;;21.70;5.57;;;;;;;11.11;100.00;100816.63;5128867;29;20330;-74
2022/12/24 05:30:05;;;;;;;24.95;5.57;;;;;;;11.07;100.00;100814.41;5129612;29;20028;-74
2022/12/24 05:32:36;;;;;;;25.00;5.78;;;;;;;11.02;100.00;100814.78;5133278;29;20115;-74
2022/12/24 05:35:08;;;;;;;26.13;7.82;;;;;;;11.03;100.00;100815.63;5129796;29;20056;-74
2022/12/24 05:37:39;;;;;;;24.77;6.28;;;;;;;11.06;100.00;100825.81;5133096;29;20489;-74
2022/12/24 05:40:10;;;;;;;24.60;6.72;;;;;;;11.05;100.00;100821.56;5132009;29;20031;-74
2022/12/24 05:42:42;;;;;;;23.52;6.32;;;;;;;11.04;100.00;100833.00;5132248;29;20031;-74
2022/12/24 05:45:13;;;;;;;21.00;5.47;;;;;;;11.05;100.00;100826.81;5110657;29;20043;-74
2022/12/24 05:47:44;;;;;;;25.13;5.82;;;;;;;11.02;100.00;100837.53;5133463;29;20032;-72
2022/12/24 05:50:16;;;;;;;28.55;5.82;;;;;;;11.02;100.00;100843.63;5133594;29;20051;-74
2022/12/24 05:52:47;;;;;;;25.30;6.72;;;;;;;10.98;100.00;100860.56;5113961;29;20039;-73
2022/12/24 05:55:18;;;;;;;26.80;6.82;;;;;;;11.00;100.00;100863.91;5114964;29;20397;-74
2022/12/24 05:57:49;;;;;;;23.70;5.30;;;;;;;11.03;100.00;100860.19;5133003;29;20416;-74
2022/12/24 06:00:21;;;;;;;24.45;6.45;;;;;;;11.03;100.00;100860.19;5129849;29;20019;-74
2022/12/24 06:02:52;;;;;;;25.33;6.10;;;;;;;10.99;100.00;100864.88;5132413;29;20039;-74
2022/12/24 06:05:23;;;;;;;25.58;6.18;;;;;;;10.96;100.00;100868.59;5132569;29;20027;-73
2022/12/24 06:07:55;;;;;;;28.00;6.90;;;;;;;10.96;100.00;100865.97;5130702;29;20038;-74
2022/12/24 06:10:26;;;;;;;25.63;6.63;;;;;;;10.95;100.00;100856.44;5131186;29;20023;-74
2022/12/24 06:12:57;;;;;;;26.90;6.28;;;;;;;11.00;100.00;100863.09;5118620;29;20072;-76
2022/12/24 06:15:29;;;;;;;25.90;7.35;;;;;;;10.95;100.00;100864.31;5133066;29;20030;-75
2022/12/24 06:18:00;;;;;;;27.10;7.35;;;;;;;10.95;100.00;100864.31;5126358;29;20039;-75
2022/12/24 06:20:32;;;;;;;22.05;5.70;;;;;;;10.94;100.00;100864.44;5133803;29;20031;-72
2022/12/24 06:23:03;;;;;;;23.40;6.85;;;;;;;10.90;100.00;100865.66;5132674;29;20024;-74
2022/12/24 06:25:34;;;;;;;29.63;7.18;;;;;;;10.92;100.00;100868.97;5132687;29;20072;-74
2022/12/24 06:28:05;;;;;;;27.50;7.25;;;;;;;10.84;100.00;100869.66;5133501;29;20026;-73
2022/12/24 06:30:37;;;;;;;24.67;7.68;;;;;;;10.82;100.00;100876.78;5116632;29;20576;-74
2022/12/24 06:33:08;;;;;;;26.05;7.43;;;;;;;10.82;100.00;100875.97;5126607;29;20031;-73
2022/12/24 06:35:40;;;;;;;26.48;6.82;;;;;;;10.79;100.00;100887.53;5133072;29;20028;-74
2022/12/24 06:38:12;;;;;;;31.77;7.30;;;;;;;10.76;100.00;100890.44;5134586;29;20091;-74
2022/12/24 06:40:45;;;;;;;28.20;7.43;;;;;;;10.75;100.00;100885.31;5133843;29;20360;-74
2022/12/24 06:43:16;;;;;;;22.30;6.53;;;;;;;10.69;100.00;100889.28;5130867;29;20512;-73
2022/12/24 06:45:47;;;;;;;25.88;6.40;;;;;;;10.67;100.00;100891.19;5134724;29;20031;-74
2022/12/24 06:48:19;;;;;;;27.30;7.13;;;;;;;10.69;100.00;100894.53;5135138;29;20075;-74
2022/12/24 06:50:50;;;;;;;29.05;7.53;;;;;;;10.70;100.00;100888.31;5129304;29;20030;-74
2022/12/24 06:53:22;;;;;;;28.42;7.50;;;;;;;10.76;100.00;100897.44;5127307;29;20050;-74
2022/12/24 06:56:03;;;;;;;27.25;7.22;;;;;;;10.86;100.00;100903.56;5130904;29;20606;-73
2022/12/24 06:58:34;;;;;;;31.52;6.82;;;;;;;10.76;100.00;100903.53;5132421;29;20609;-74
2022/12/24 07:01:08;;;;;;;26.45;6.97;;;;;;;10.81;100.00;100906.59;5133172;29;20023;-73
2022/12/24 07:03:40;;;;;;;26.73;6.75;;;;;;;10.72;100.00;100910.00;5127644;29;20043;-74
2022/12/24 07:06:23;;;;;;;23.73;6.97;;;;;;;10.77;100.00;100910.44;5127850;29;20055;-73
2022/12/24 07:08:54;;;;;;;26.90;6.28;;;;;;;10.68;100.00;100908.56;5129570;29;20481;-71
2022/12/24 07:11:26;;;;;;;31.67;7.00;;;;;;;10.62;100.00;100914.34;5134850;29;20035;-74
2022/12/24 07:13:57;;;;;;;29.73;8.25;;;;;;;10.57;100.00;100919.13;5132504;29;20035;-73
2022/12/24 07:16:28;;;;;;;32.08;7.50;;;;;;;10.58;100.00;100921.63;5133392;29;20043;-74
2022/12/24 07:19:00;;;;;;;29.55;7.07;;;;;;;10.55;100.00;100921.88;5133514;29;20028;-73
2022/12/24 07:21:31;;;;;;;32.42;8.02;;;;;;;10.53;100.00;100915.09;5134619;29;20078;-74
2022/12/24 07:24:03;;;;;;;28.52;7.03;;;;;;;10.54;100.00;100919.41;5126276;29;20096;-74
2022/12/24 07:26:34;;;;;;;26.38;7.03;;;;;;;10.51;100.00;100927.50;5129128;29;20024;-73
2022/12/24 07:29:05;;;;;;;31.08;7.10;;;;;;;10.56;100.00;100922.72;5132316;29;20114;-74
2022/12/24 07:31:36;;;;;;;28.92;7.07;;;;;;;10.53;100.00;100928.19;5134161;29;20031;-73
2022/12/24 07:34:08;;;;;;;24.33;6.50;;;;;;;10.50;100.00;100937.16;5133038;29;20763;-74
2022/12/24 07:36:39;;;;;;;29.17;7.03;;;;;;;10.44;100.00;100938.47;5135250;29;20028;-72
2022/12/24 07:39:10;;;;;;;29.90;7.28;;;;;;;10.48;100.00;100952.97;5135348;29;20034;-74
2022/12/24 07:41:42;;;;;;;33.28;6.97;;;;;;;10.44;100.00;100948.13;5130807;29;20027;-74
2022/12/24 07:44:13;;;;;;;32.33;6.55;;;;;;;10.43;100.00;100947.31;5115958;29;20027;-74
2022/12/24 07:46:44;;;;;;;32.58;7.53;;;;;;;10.42;100.00;100950.06;5134715;29;20114;-71
2022/12/24 07:49:16;;;;;;;30.42;7.10;;;;;;;10.42;100.00;100955.31;5132727;29;20046;-74
2022/12/24 07:51:47;;;;;;;30.98;7.95;;;;;;;10.42;100.00;100963.97;5117104;29;20389;-74
2022/12/24 07:54:18;;;;;;;27.15;6.68;;;;;;;10.41;100.00;100972.78;5133547;29;20075;-73
2022/12/24 07:56:50;;;;;;;26.73;6.03;;;;;;;10.38;100.00;100966.97;5126880;29;20266;-74
2022/12/24 07:59:21;;;;;;;28.08;6.88;;;;;;;10.41;100.00;100985.88;5131702;29;20087;-73
2022/12/24 08:01:52;;;;;;;34.22;7.93;;;;;;;10.47;100.00;100977.53;5134417;29;20032;-74
2022/12/24 08:04:24;;;;;;;32.92;7.40;;;;;;;10.46;100.00;100994.19;5134078;29;20115;-74
2022/12/24 08:06:55;;;;;;;30.13;6.97;;;;;;;10.55;100.00;101000.47;5130086;29;20024;-74
2022/12/24 08:09:26;;;;;;;27.17;5.65;;;;;;;10.54;100.00;100998.81;5127769;29;20500;-74
2022/12/24 08:11:57;;;;;;;31.70;6.97;;;;;;;10.45;100.00;100995.16;5141099;23;20569;-72
2022/12/24 08:14:29;;;;;;;28.48;6.53;;;;;;;10.52;100.00;101007.75;5116853;29;20087;-72
2022/12/24 08:17:01;;;;;;;24.77;6.28;;;;;;;10.53;100.00;101019.88;5115103;29;20020;-71
2022/12/24 08:19:32;;;;;;;21.38;6.22;;;;;;;10.51;100.00;101012.16;5122306;29;20429;-72
2022/12/24 08:22:03;;;;;;;30.38;6.82;;;;;;;10.56;100.00;101017.84;5111963;29;20125;-72
2022/12/24 08:24:36;;;;;;;23.70;6.00;;;;;;;10.53;100.00;101012.88;5112655;29;20031;-71
2022/12/24 08:27:07;;;;;;;26.38;5.93;;;;;;;10.61;100.00;101027.97;5111278;29;20511;-71
2022/12/24 08:29:38;;;;;;;25.42;6.80;;;;;;;10.64;100.00;101028.50;5105688;29;20036;-71
2022/12/24 08:32:10;;;;;;;26.88;6.63;;;;;;;10.68;100.00;101021.25;5114183;29;20111;-72
2022/12/24 08:34:41;;;;;;;23.30;6.05;;;;;;;10.64;100.00;101030.31;5111368;29;20115;-72
2022/12/24 08:37:12;;;;;;;24.10;6.18;;;;;;;10.64;100.00;101030.31;5105681;29;20490;-72
2022/12/24 08:39:50;;;;;;;25.08;5.45;;;;;;;10.67;100.00;101036.13;5097853;29;20040;-72
2022/12/24 08:42:21;;;;;;;28.58;6.80;;;;;;;10.68;100.00;101036.97;5089147;29;20598;-71
2022/12/24 08:44:52;;;;;;;30.95;6.93;;;;;;;10.71;100.00;101031.47;5106034;29;21303;-71
2022/12/24 08:47:24;;;;;;;28.67;6.78;;;;;;;10.72;100.00;101033.16;5105643;29;20116;-72
2022/12/24 08:49:55;;;;;;;27.67;7.03;;;;;;;10.67;100.00;101027.44;5086272;29;20044;-72
2022/12/24 08:52:26;;;;;;;29.88;6.57;;;;;;;10.75;100.00;101050.41;5081484;29;20087;-71
2022/12/24 08:54:57;;;;;;;34.30;7.00;;;;;;;10.75;100.00;101053.00;5090243;29;20028;-72
2022/12/24 08:57:29;;;;;;;29.17;7.22;;;;;;;10.73;100.00;101047.91;5111136;29;20028;-72
2022/12/24 09:00:00;;;;;;;24.13;6.30;;;;;;;10.72;100.00;101059.38;5113771;29;20032;-71
2022/12/24 09:02:34;;;;;;;26.15;7.15;;;;;;;10.78;100.00;101056.22;5106852;29;20028;-72
2022/12/24 09:05:06;;;;;;;25.52;6.97;;;;;;;10.69;100.00;101049.13;5113269;29;20036;-72
2022/12/24 09:07:37;;;;;;;23.23;6.40;;;;;;;10.73;100.00;101063.63;5095066;29;20036;-71
2022/12/24 09:10:10;;;;;;;27.52;6.57;;;;;;;10.71;100.00;101068.16;5111557;29;20044;-72
2022/12/24 09:12:41;;;;;;;23.45;6.75;;;;;;;10.75;100.00;101074.81;5108593;29;20056;-72
2022/12/24 09:15:13;;;;;;;31.73;7.55;;;;;;;10.74;100.00;101072.31;5111266;29;20445;-72
2022/12/24 09:17:44;;;;;;;27.73;7.63;;;;;;;10.77;100.00;101088.63;5107333;29;20044;-71
2022/12/24 09:20:20;;;;;;;25.88;6.68;;;;;;;10.84;100.00;101095.03;5114432;29;20468;-72
2022/12/24 09:22:51;;;;;;;23.85;7.25;;;;;;;10.79;100.00;101096.34;5114961;29;20111;-71
2022/12/24 09:25:22;;;;;;;29.27;6.50;;;;;;;10.82;100.00;101102.19;5107810;29;20194;-71
2022/12/24 09:27:54;;;;;;;28.90;7.03;;;;;;;10.87;100.00;101110.53;5113907;29;20088;-71
2022/12/24 09:30:25;;;;;;;35.50;7.68;;;;;;;10.91;100.00;101105.84;5112488;29;20478;-71
2022/12/24 09:32:56;;;;;;;36.15;7.30;;;;;;;10.98;100.00;101112.25;5109939;29;20167;-71
2022/12/24 09:35:27;;;;;;;33.35;7.32;;;;;;;11.02;100.00;101113.66;5086917;29;20063;-73
2022/12/24 09:38:01;;;;;;;26.73;7.07;;;;;;;11.02;100.00;101111.03;5112683;29;20040;-72
2022/12/24 09:40:38;;;;;;;27.67;6.70;;;;;;;11.12;100.00;101118.97;5110086;29;20034;-73
2022/12/24 09:43:22;;;;;;;26.42;6.68;;;;;;;11.15;100.00;101103.81;5110930;29;20039;-73
2022/12/24 09:46:33;;;;;;;28.77;7.63;;;;;;;11.37;100.00;101112.53;5110118;29;20031;-73
2022/12/24 09:49:12;;;;;;;27.23;6.47;;;;;;;11.16;100.00;101125.63;5111602;29;20042;-73
2022/12/24 09:51:50;;;;;;;28.35;6.38;;;;;;;11.13;100.00;101116.22;5113893;29;20071;-73
2022/12/24 09:54:29;;;;;;;29.42;7.20;;;;;;;11.20;100.00;101138.34;5115557;29;20035;-72
2022/12/24 09:57:16;;;;;;;25.75;7.15;;;;;;;11.20;100.00;101140.97;5112965;29;20493;-73
2022/12/24 09:59:48;;;;;;;28.95;8.43;;;;;;;11.11;100.00;101144.38;5117200;29;20051;-73
2022/12/24 10:02:20;;;;;;;34.60;8.30;;;;;;;11.10;100.00;101147.09;5114379;29;20099;-73
2022/12/24 10:04:51;;;;;;;31.30;7.93;;;;;;;11.09;100.00;101145.44;5114455;29;20057;-73
2022/12/24 10:07:29;;;;;;;37.15;8.43;;;;;;;11.20;100.00;101140.97;5110104;29;20059;-73
2022/12/24 10:10:25;;;;;;;31.13;8.05;;;;;;;11.27;100.00;101146.56;5112501;29;20117;-73
2022/12/24 10:13:14;;;;;;;24.45;6.57;;;;;;;11.27;100.00;101157.03;5111192;29;20048;-74
2022/12/24 10:16:13;;;;;;;34.28;8.23;;;;;;;11.24;100.00;101159.09;5114435;29;20381;-73
2022/12/24 10:19:12;;;;;;;32.60;8.77;;;;;;;11.35;100.00;101157.25;5107671;29;21196;-72
2022/12/24 10:21:54;;;;;;;29.27;7.63;;;;;;;11.27;100.00;101148.34;5117336;29;20438;-73
2022/12/24 10:24:37;;;;;;;27.83;8.55;;;;;;;11.38;100.00;101154.38;5099551;29;20028;-73
2022/12/24 10:27:13;;;;;;;26.35;7.20;;;;;;;11.31;100.00;101137.47;5106225;29;20024;-73
2022/12/24 10:29:50;;;;;;;28.40;7.50;;;;;;;11.37;100.00;101146.63;5115602;29;20075;-73
2022/12/24 10:32:27;;;;;;;29.13;7.05;;;;;;;11.38;100.00;101150.91;5109605;29;20044;-73
2022/12/24 10:35:05;;;;;;;35.42;8.75;;;;;;;11.35;100.00;101141.50;5105076;29;20115;-73
2022/12/24 10:37:36;;;;;;;25.80;7.43;;;;;;;11.26;100.00;101130.97;5114578;29;20047;-72
2022/12/24 10:40:14;;;;;;;27.08;7.13;;;;;;;11.40;100.00;101159.47;5115549;29;20028;-72
2022/12/24 10:42:45;;;;;;;28.75;7.25;;;;;;;11.24;100.00;101152.03;5114340;29;20183;-72
2022/12/24 10:45:20;;;;;;;29.80;7.63;;;;;;;11.36;100.00;101156.28;5111201;29;20037;-72
2022/12/24 10:47:56;;;;;;;29.42;6.88;;;;;;;11.24;100.00;101135.47;5108516;29;20051;-74
2022/12/24 10:50:36;;;;;;;28.00;7.20;;;;;;;11.39;100.00;101157.81;5111129;29;20020;-73
2022/12/24 10:53:36;;;;;;;32.22;6.38;;;;;;;11.45;100.00;101150.28;5115084;29;20116;-73
2022/12/24 10:56:14;;;;;;;28.88;7.68;;;;;;;11.49;100.00;101160.53;5112679;29;20114;-74
2022/12/24 10:58:51;;;;;;;29.15;8.45;;;;;;;11.54;100.00;101163.56;5110375;28;20090;-72
2022/12/24 11:01:43;;;;;;;28.92;7.88;;;;;;;11.77;100.00;101159.00;5113375;29;20036;-73
2022/12/24 11:04:21;;;;;;;25.70;7.32;;;;;;;11.60;100.00;101156.03;5113436;29;20104;-73
2022/12/24 11:06:57;;;;;;;25.67;7.40;;;;;;;11.70;100.00;101161.31;5114335;29;20039;-73
2022/12/24 11:09:32;;;;;;;29.73;7.50;;;;;;;11.66;100.00;101160.75;5114919;29;20031;-73
2022/12/24 11:12:14;;;;;;;32.00;7.65;;;;;;;11.65;100.00;101158.25;5099604;29;20040;-73
2022/12/24 11:14:45;;;;;;;38.63;8.48;;;;;;;11.65;100.00;101168.75;5110944;29;20107;-72
2022/12/24 11:17:22;;;;;;;28.48;7.97;;;;;;;11.75;100.00;101156.53;5109129;29;20028;-73
2022/12/24 11:19:53;;;;;;;28.13;7.25;;;;;;;11.70;100.00;101158.69;5111458;29;20033;-73
2022/12/24 11:22:30;;;;;;;30.17;7.10;;;;;;;11.82;100.00;101167.31;5111737;29;20501;-72
2022/12/24 11:25:05;;;;;;;27.90;7.45;;;;;;;11.79;100.00;101167.59;5109837;29;20039;-73
2022/12/24 11:27:44;;;;;;;31.05;7.68;;;;;;;11.87;100.00;101166.00;5108678;29;20490;-73
2022/12/24 11:30:16;;;;;;;31.02;7.78;;;;;;;11.86;100.00;101177.50;5112163;29;20064;-71
2022/12/24 11:33:17;;;;;;;33.67;8.40;;;;;;;12.12;100.00;101177.88;5113565;29;20119;-73
2022/12/24 11:35:53;;;;;;;29.08;7.90;;;;;;;11.92;100.00;101179.56;5105348;29;20875;-73
2022/12/24 11:38:26;;;;;;;24.08;7.75;;;;;;;11.92;100.00;101184.00;5113920;29;20363;-73
2022/12/24 11:41:01;;;;;;;27.95;8.18;;;;;;;11.96;100.00;101174.06;5100843;29;20288;-73
2022/12/24 11:43:47;;;;;;;26.23;7.82;;;;;;;12.02;100.00;101165.69;5108446;29;20063;-73
2022/12/24 11:46:40;;;;;;;25.58;7.07;;;;;;;12.13;100.00;101181.34;5108647;29;20619;-72
2022/12/24 11:49:11;;;;;;;28.02;7.82;;;;;;;11.96;100.00;101190.66;5112906;29;20417;-72
2022/12/24 11:52:10;;;;;;;22.33;7.03;;;;;;;12.13;100.00;101191.84;5094178;29;20060;-73
2022/12/24 11:54:50;;;;;;;29.10;7.97;;;;;;;12.00;100.00;101188.59;5114361;29;20120;-72